Time;durP1;ratioP1;P1;durP2;ratioP2;P2;SDS_P1;SDS_P2;PMS_P1;PMS_P2;Temp;Humidity;BMP_temperature;BMP_pressure;BME280_temperature;BME280_humidity;BME280_pressure;Samples;Min_cycle;Max_cycle;Signal;HPM_P1;HPM_P2
2021/11/30 00:01:54;;;;;;;2.10;1.90;;;5.90;84.50;;;;;;4954872;28;98818;-73
2021/11/30 00:04:23;;;;;;;2.90;1.95;;;5.90;85.30;;;;;;4953644;28;98638;-72
2021/11/30 00:06:50;;;;;;;2.22;2.03;;;5.90;84.50;;;;;;4955671;28;97817;-72
2021/11/30 00:12:02;;;;;;;3.22;1.75;;;6.00;84.60;;;;;;4955171;28;98902;-72
2021/11/30 00:14:29;;;;;;;6.28;2.25;;;6.00;84.20;;;;;;4953399;28;99321;-73
2021/11/30 00:16:57;;;;;;;3.90;1.92;;;6.00;84.20;;;;;;4955127;28;98497;-72
2021/11/30 00:19:26;;;;;;;4.05;2.10;;;6.00;84.40;;;;;;4954494;28;100196;-73
2021/11/30 00:21:54;;;;;;;3.63;2.17;;;6.00;84.10;;;;;;4936570;28;115853;-73
2021/11/30 00:24:23;;;;;;;5.88;2.20;;;6.10;84.20;;;;;;4954643;28;98505;-73
2021/11/30 00:26:50;;;;;;;4.32;2.25;;;6.10;84.00;;;;;;4954963;28;98781;-72
2021/11/30 00:29:17;;;;;;;3.83;2.25;;;6.20;83.50;;;;;;4954409;28;99192;-72
2021/11/30 00:31:44;;;;;;;7.18;2.58;;;6.20;83.40;;;;;;4955079;28;98654;-73
2021/11/30 00:34:11;;;;;;;5.13;2.40;;;6.20;83.90;;;;;;4953677;28;98566;-73
2021/11/30 00:36:38;;;;;;;5.93;2.20;;;6.20;83.10;;;;;;4954863;28;98934;-73
2021/11/30 00:39:06;;;;;;;4.72;2.22;;;6.30;83.60;;;;;;4936372;28;102956;-74
2021/11/30 00:41:34;;;;;;;5.53;2.22;;;6.30;83.10;;;;;;4936333;28;102541;-74
2021/11/30 00:44:02;;;;;;;3.75;2.25;;;6.30;82.90;;;;;;4954575;28;99005;-72
2021/11/30 00:46:34;;;;;;;4.53;1.90;;;6.30;82.90;;;;;;4954488;28;98537;-73
2021/11/30 00:49:03;;;;;;;9.10;2.30;;;6.40;82.90;;;;;;4954563;28;99201;-69
2021/11/30 00:51:33;;;;;;;7.53;2.55;;;6.40;82.70;;;;;;4953970;28;98889;-73
2021/11/30 00:54:00;;;;;;;5.53;2.03;;;6.40;82.90;;;;;;4953121;28;98548;-73
2021/11/30 00:56:27;;;;;;;6.65;2.47;;;6.40;82.20;;;;;;4937170;28;97805;-73
2021/11/30 00:58:54;;;;;;;6.43;2.20;;;6.40;82.00;;;;;;4935920;28;117986;-73
2021/11/30 01:01:22;;;;;;;4.45;2.13;;;6.40;82.20;;;;;;4953364;28;98976;-72
2021/11/30 01:03:49;;;;;;;4.00;1.77;;;6.40;82.00;;;;;;4954084;28;99185;-73
2021/11/30 01:06:16;;;;;;;4.32;1.95;;;6.40;81.80;;;;;;4954554;28;98508;-73
2021/11/30 01:08:43;;;;;;;2.10;1.70;;;6.40;82.10;;;;;;4953817;28;99676;-73
2021/11/30 01:11:10;;;;;;;3.40;1.55;;;6.50;81.60;;;;;;4954104;28;98954;-73
2021/11/30 01:13:37;;;;;;;6.88;1.70;;;6.50;81.50;;;;;;4953639;28;102761;-73
2021/11/30 01:16:04;;;;;;;4.15;1.80;;;6.50;81.20;;;;;;4954132;28;98619;-73
2021/11/30 01:18:33;;;;;;;6.28;1.50;;;6.60;80.90;;;;;;4953806;28;99146;-73
2021/11/30 01:21:02;;;;;;;1.70;1.20;;;6.60;79.70;;;;;;4953396;28;103200;-73
2021/11/30 01:23:30;;;;;;;5.78;2.05;;;6.60;79.50;;;;;;4953825;28;98419;-73
2021/11/30 01:26:01;;;;;;;6.28;2.08;;;6.60;79.70;;;;;;4952426;28;98629;-73
2021/11/30 01:28:28;;;;;;;5.88;2.20;;;6.60;80.80;;;;;;4935355;28;101806;-73
2021/11/30 01:30:55;;;;;;;6.15;2.15;;;6.60;81.70;;;;;;4953782;28;99603;-69
2021/11/30 01:33:22;;;;;;;4.38;1.65;;;6.50;81.60;;;;;;4953662;28;102081;-69
2021/11/30 01:35:50;;;;;;;4.82;1.85;;;6.50;82.50;;;;;;4953813;28;98579;-72
2021/11/30 01:38:18;;;;;;;6.68;2.10;;;6.50;83.10;;;;;;4953468;28;99118;-69
2021/11/30 01:40:45;;;;;;;6.90;2.30;;;6.50;83.70;;;;;;4953320;28;98826;-69
2021/11/30 01:43:18;;;;;;;4.82;2.28;;;6.40;83.80;;;;;;4953983;28;98553;-69
2021/11/30 01:50:58;;;;;;;6.32;2.92;;;6.40;85.30;;;;;;4953341;28;98891;-69
2021/11/30 01:53:26;;;;;;;6.70;3.35;;;6.30;85.10;;;;;;4952488;28;99417;-70
2021/11/30 01:55:53;;;;;;;6.45;3.15;;;6.30;85.60;;;;;;4953484;28;98891;-70
2021/11/30 01:58:20;;;;;;;9.38;3.92;;;6.30;86.40;;;;;;4953402;28;99145;-69
2021/11/30 02:00:47;;;;;;;6.10;3.42;;;6.30;86.10;;;;;;4952586;28;115011;-69
2021/11/30 02:03:14;;;;;;;9.38;3.38;;;6.30;86.30;;;;;;4952225;28;98497;-70
2021/11/30 02:05:42;;;;;;;3.97;3.47;;;6.30;86.60;;;;;;4950380;28;98593;-69
2021/11/30 02:08:09;;;;;;;6.68;4.60;;;6.30;86.70;;;;;;4951617;28;100233;-69
2021/11/30 02:10:38;;;;;;;5.28;3.63;;;6.30;86.60;;;;;;4951782;28;100661;-73
2021/11/30 02:13:05;;;;;;;5.28;3.30;;;6.30;86.60;;;;;;4952137;28;98440;-73
2021/11/30 02:15:37;;;;;;;5.88;3.45;;;6.30;86.10;;;;;;4951431;28;102213;-73
2021/11/30 02:18:12;;;;;;;6.10;3.60;;;6.20;86.40;;;;;;4951454;28;104047;-73
2021/11/30 02:20:42;;;;;;;7.43;3.90;;;6.20;87.10;;;;;;4951441;28;99536;-73
2021/11/30 02:23:17;;;;;;;5.45;3.58;;;6.20;86.60;;;;;;4952361;28;99122;-69
2021/11/30 02:25:44;;;;;;;7.15;4.07;;;6.20;86.70;;;;;;4951863;28;98505;-69
2021/11/30 02:28:11;;;;;;;7.20;4.50;;;6.20;87.10;;;;;;4951164;28;108212;-74
2021/11/30 02:30:38;;;;;;;7.70;4.45;;;6.20;86.60;;;;;;4950968;28;99879;-73
2021/11/30 02:33:05;;;;;;;8.85;5.05;;;6.20;86.40;;;;;;4949413;28;99613;-73
2021/11/30 02:35:32;;;;;;;8.30;4.82;;;6.20;86.10;;;;;;4952260;28;97759;-73
2021/11/30 02:37:59;;;;;;;7.32;4.97;;;6.20;86.30;;;;;;4951092;28;103715;-73
2021/11/30 02:40:27;;;;;;;6.78;4.63;;;6.20;86.70;;;;;;4950101;28;98883;-73
2021/11/30 02:42:54;;;;;;;5.97;4.35;;;6.20;86.20;;;;;;4951179;28;99229;-73
2021/11/30 02:45:21;;;;;;;5.65;4.65;;;6.10;86.50;;;;;;4951654;28;98450;-73
2021/11/30 02:47:48;;;;;;;5.05;4.15;;;6.10;86.90;;;;;;4951138;28;99535;-73
2021/11/30 02:50:15;;;;;;;8.60;5.40;;;6.10;86.90;;;;;;4950051;28;99035;-73
2021/11/30 02:52:42;;;;;;;4.13;3.72;;;6.10;87.40;;;;;;4951345;28;98572;-69
2021/11/30 02:55:09;;;;;;;7.93;4.97;;;6.10;87.20;;;;;;4951361;28;98590;-72
2021/11/30 02:57:36;;;;;;;7.00;4.50;;;6.20;86.90;;;;;;4917934;28;99254;-73
2021/11/30 03:00:06;;;;;;;8.52;5.22;;;6.20;87.70;;;;;;4951444;28;98742;-69
2021/11/30 03:02:35;;;;;;;6.43;5.45;;;6.20;87.30;;;;;;4910877;28;1202235;-70
2021/11/30 03:05:04;;;;;;;7.95;5.40;;;6.20;87.90;;;;;;4952397;28;98626;-69
2021/11/30 03:07:37;;;;;;;7.32;5.05;;;6.20;88.70;;;;;;4951937;28;99818;-69
2021/11/30 03:10:17;;;;;;;7.35;4.93;;;6.30;86.90;;;;;;4950652;28;100651;-69
2021/11/30 03:12:46;;;;;;;7.32;5.45;;;6.30;87.20;;;;;;4952665;28;98502;-69
2021/11/30 03:15:19;;;;;;;6.90;5.63;;;6.30;87.40;;;;;;4935202;28;98856;-69
2021/11/30 03:17:46;;;;;;;7.57;6.15;;;6.20;87.60;;;;;;4952204;28;99239;-69
2021/11/30 03:20:15;;;;;;;6.15;5.55;;;6.20;88.30;;;;;;4951393;28;115313;-69
2021/11/30 03:22:43;;;;;;;7.65;6.93;;;6.20;87.80;;;;;;4952121;28;98509;-73
2021/11/30 03:25:10;;;;;;;8.40;6.72;;;6.20;88.00;;;;;;4952815;28;97746;-73
2021/11/30 03:27:37;;;;;;;7.63;6.93;;;6.30;87.90;;;;;;4934529;28;100195;-73
2021/11/30 03:30:07;;;;;;;7.65;6.75;;;6.30;88.00;;;;;;4950461;28;102099;-73
2021/11/30 03:35:21;;;;;;;7.38;6.68;;;6.30;88.00;;;;;;4937815;28;98517;-69
2021/11/30 03:37:49;;;;;;;7.88;6.97;;;6.30;87.70;;;;;;4951852;28;99298;-69
2021/11/30 03:40:16;;;;;;;7.43;6.57;;;6.40;88.10;;;;;;4952032;28;98838;-69
2021/11/30 03:42:43;;;;;;;8.00;6.90;;;6.40;88.00;;;;;;4965978;28;98582;-72
2021/11/30 03:45:10;;;;;;;7.18;6.47;;;6.40;88.10;;;;;;4956724;28;98695;-72
2021/11/30 03:47:37;;;;;;;7.15;6.45;;;6.40;87.80;;;;;;4962577;28;99703;-72
2021/11/30 03:50:04;;;;;;;7.25;6.30;;;6.40;88.00;;;;;;4955126;28;100543;-72
2021/11/30 03:52:31;;;;;;;7.32;6.55;;;6.50;88.30;;;;;;4955540;28;98535;-72
2021/11/30 03:54:58;;;;;;;7.57;6.00;;;6.50;88.20;;;;;;4954583;28;105585;-72
2021/11/30 03:57:42;;;;;;;8.40;6.38;;;6.60;88.10;;;;;;4954912;28;99797;-69
2021/11/30 04:00:11;;;;;;;7.72;6.93;;;6.60;88.20;;;;;;4954875;28;101407;-69
2021/11/30 04:02:39;;;;;;;6.63;6.03;;;6.60;88.40;;;;;;4974599;28;98557;-69
2021/11/30 04:05:08;;;;;;;6.15;5.55;;;6.70;88.50;;;;;;4972886;28;98563;-72
2021/11/30 04:07:35;;;;;;;6.60;5.93;;;6.70;88.80;;;;;;4956586;28;101050;-72
2021/11/30 04:10:03;;;;;;;6.43;5.82;;;6.80;88.50;;;;;;4974012;28;98845;-72
2021/11/30 04:12:30;;;;;;;5.60;5.15;;;6.80;88.40;;;;;;4974803;28;98981;-72
2021/11/30 04:14:57;;;;;;;6.07;5.47;;;6.80;88.00;;;;;;4973160;28;97787;-72
2021/11/30 04:17:24;;;;;;;5.90;5.30;;;6.80;88.20;;;;;;4974473;28;99043;-69
2021/11/30 04:19:51;;;;;;;6.10;5.10;;;6.90;88.80;;;;;;4956702;28;98788;-68
2021/11/30 04:22:23;;;;;;;5.18;4.70;;;6.90;88.20;;;;;;4974019;28;99558;-69
2021/11/30 04:24:50;;;;;;;5.72;5.18;;;6.90;88.70;;;;;;4974252;28;98593;-68
2021/11/30 04:27:17;;;;;;;5.32;4.43;;;7.00;88.70;;;;;;4973975;28;99167;-72
2021/11/30 04:29:46;;;;;;;5.45;4.95;;;7.00;88.60;;;;;;4973732;28;113227;-72
2021/11/30 04:32:12;;;;;;;4.78;4.20;;;7.00;88.70;;;;;;4973969;28;98488;-72
2021/11/30 04:34:40;;;;;;;5.22;4.72;;;7.00;88.60;;;;;;4974575;28;98523;-72
2021/11/30 04:37:07;;;;;;;4.70;4.30;;;7.10;88.80;;;;;;4973595;28;99238;-68
2021/11/30 04:39:34;;;;;;;5.38;4.90;;;7.10;88.50;;;;;;4974474;28;98760;-68
2021/11/30 04:42:02;;;;;;;4.78;4.38;;;7.10;88.90;;;;;;4974252;28;98506;-68
2021/11/30 04:44:32;;;;;;;5.05;4.65;;;7.10;88.80;;;;;;4974294;28;98597;-69
2021/11/30 04:47:03;;;;;;;4.82;4.32;;;7.10;88.60;;;;;;4972986;28;99846;-69
2021/11/30 04:52:02;;;;;;;5.15;4.63;;;7.20;88.30;;;;;;4973921;28;98432;-69
2021/11/30 04:54:29;;;;;;;5.50;4.90;;;7.20;88.50;;;;;;4955980;28;98523;-69
2021/11/30 04:56:56;;;;;;;4.80;4.30;;;7.30;88.40;;;;;;4973306;28;99184;-69
2021/11/30 04:59:23;;;;;;;4.82;4.32;;;7.30;88.50;;;;;;4973670;28;98997;-69
2021/11/30 05:01:51;;;;;;;4.22;3.83;;;7.30;88.50;;;;;;4973644;28;98551;-69
2021/11/30 05:04:18;;;;;;;4.95;4.13;;;7.30;88.50;;;;;;4973836;28;97825;-69
2021/11/30 05:06:45;;;;;;;5.20;4.70;;;7.30;88.40;;;;;;4955712;28;100424;-69
2021/11/30 05:09:12;;;;;;;4.57;4.18;;;7.30;88.50;;;;;;4973260;28;98823;-72
2021/11/30 05:11:39;;;;;;;4.40;4.00;;;7.40;88.20;;;;;;4973160;28;102019;-72
2021/11/30 05:14:07;;;;;;;4.65;4.25;;;7.40;88.10;;;;;;4973649;28;98575;-72
2021/11/30 05:16:34;;;;;;;4.70;4.30;;;7.50;88.30;;;;;;4973361;28;99176;-72
2021/11/30 05:19:02;;;;;;;4.47;4.07;;;7.50;88.50;;;;;;4973259;28;98994;-72
2021/11/30 05:21:29;;;;;;;4.85;4.45;;;7.50;88.40;;;;;;4973631;28;98642;-72
2021/11/30 05:24:01;;;;;;;4.82;4.32;;;7.50;88.90;;;;;;4972057;28;98561;-72
2021/11/30 05:26:28;;;;;;;4.53;4.13;;;7.60;88.40;;;;;;4973407;28;99355;-72
2021/11/30 05:28:55;;;;;;;6.32;3.95;;;7.60;88.10;;;;;;4971630;28;112977;-72
2021/11/30 05:31:23;;;;;;;4.10;3.65;;;7.60;87.90;;;;;;4973270;28;98507;-72
2021/11/30 05:33:50;;;;;;;5.93;4.47;;;7.70;88.00;;;;;;4973538;28;99136;-72
2021/11/30 05:36:18;;;;;;;3.65;3.35;;;7.70;88.00;;;;;;4954993;28;100023;-72
2021/11/30 05:38:46;;;;;;;3.95;3.55;;;7.70;87.80;;;;;;4971583;28;100918;-72
2021/11/30 05:41:13;;;;;;;4.00;3.17;;;7.70;87.80;;;;;;4973360;28;98901;-72
2021/11/30 05:43:40;;;;;;;4.22;3.17;;;7.70;87.90;;;;;;4971342;28;107507;-72
2021/11/30 05:46:07;;;;;;;3.58;2.92;;;7.70;88.10;;;;;;4971026;28;100413;-72
2021/11/30 05:48:35;;;;;;;3.70;3.08;;;7.70;88.00;;;;;;4972923;28;98715;-72
2021/11/30 05:51:03;;;;;;;4.97;3.03;;;7.70;88.30;;;;;;4971491;28;98588;-72
2021/11/30 05:53:31;;;;;;;5.95;2.70;;;7.70;88.50;;;;;;4972067;28;97845;-72
2021/11/30 05:56:01;;;;;;;4.72;2.83;;;7.70;89.40;;;;;;4955115;28;105821;-72
2021/11/30 05:58:30;;;;;;;5.40;3.05;;;7.70;88.80;;;;;;4973031;28;98753;-72
2021/11/30 06:01:07;;;;;;;4.82;2.95;;;7.80;89.00;;;;;;4972509;28;99920;-72
2021/11/30 06:03:45;;;;;;;6.53;3.00;;;7.80;89.30;;;;;;4973044;28;98567;-69
2021/11/30 06:06:12;;;;;;;4.70;2.45;;;7.80;89.20;;;;;;4971916;28;99267;-69
2021/11/30 06:08:39;;;;;;;7.57;2.33;;;7.90;89.50;;;;;;4972678;28;98908;-69
2021/11/30 06:11:06;;;;;;;1.67;1.50;;;8.00;89.80;;;;;;4955095;28;98566;-69
2021/11/30 06:13:33;;;;;;;6.03;1.80;;;8.00;90.00;;;;;;4972975;28;98482;-69
2021/11/30 06:16:00;;;;;;;5.13;1.67;;;8.10;90.00;;;;;;4972506;28;99156;-69
2021/11/30 06:18:28;;;;;;;9.35;1.58;;;8.20;89.90;;;;;;4972768;28;98847;-68
2021/11/30 06:20:55;;;;;;;11.00;2.58;;;8.30;90.00;;;;;;4972778;28;101008;-69
2021/11/30 06:23:22;;;;;;;7.13;2.03;;;8.40;90.20;;;;;;4972540;28;98612;-69
2021/11/30 06:25:49;;;;;;;11.88;2.00;;;8.50;89.70;;;;;;4971546;28;100255;-69
2021/11/30 06:28:16;;;;;;;6.40;1.20;;;8.50;89.60;;;;;;4954449;28;100728;-69
2021/11/30 06:30:43;;;;;;;10.52;1.75;;;8.50;89.50;;;;;;4972898;28;98579;-69
2021/11/30 06:33:10;;;;;;;11.10;2.13;;;8.50;89.20;;;;;;4954526;28;98577;-69
2021/11/30 06:35:37;;;;;;;7.57;1.50;;;8.60;89.30;;;;;;4971554;28;121563;-69
2021/11/30 06:38:05;;;;;;;18.08;1.83;;;8.60;89.20;;;;;;4972363;28;98807;-72
2021/11/30 06:40:32;;;;;;;10.27;1.50;;;8.70;88.90;;;;;;4954888;28;98677;-72
2021/11/30 06:42:59;;;;;;;8.80;1.30;;;8.80;89.00;;;;;;4972692;28;97754;-72
2021/11/30 06:45:26;;;;;;;9.30;1.70;;;8.80;88.70;;;;;;4971792;28;100113;-72
2021/11/30 06:47:53;;;;;;;7.00;1.70;;;8.90;88.40;;;;;;4954442;28;101689;-72
2021/11/30 06:50:20;;;;;;;9.38;1.50;;;8.90;88.00;;;;;;4972098;28;99255;-72
2021/11/30 06:52:49;;;;;;;9.10;2.03;;;9.00;88.00;;;;;;4971019;28;98557;-73
2021/11/30 06:55:17;;;;;;;9.90;2.33;;;9.10;87.40;;;;;;4971798;28;104800;-73
2021/11/30 06:57:44;;;;;;;13.93;2.30;;;9.10;87.30;;;;;;4972034;28;98904;-73
2021/11/30 07:00:13;;;;;;;14.00;2.35;;;9.10;87.00;;;;;;4954878;28;98665;-73
2021/11/30 07:02:41;;;;;;;11.40;1.95;;;9.10;86.80;;;;;;4970332;28;98646;-69
2021/11/30 07:05:32;;;;;;;13.98;2.40;;;9.20;86.60;;;;;;4970751;28;101878;-69
2021/11/30 07:08:13;;;;;;;17.20;1.90;;;9.20;86.50;;;;;;4972321;28;99026;-69
2021/11/30 07:10:53;;;;;;;17.63;1.88;;;9.20;86.60;;;;;;4972599;28;98549;-69
2021/11/30 07:13:23;;;;;;;13.95;2.50;;;9.30;86.20;;;;;;4972246;28;98522;-69
2021/11/30 07:16:02;;;;;;;13.63;1.75;;;9.40;85.90;;;;;;4971470;28;99741;-69
2021/11/30 07:18:30;;;;;;;9.95;1.65;;;9.40;85.70;;;;;;4972727;28;99607;-69
2021/11/30 07:20:58;;;;;;;12.57;2.40;;;9.40;85.40;;;;;;4974336;28;98592;-69
2021/11/30 07:23:25;;;;;;;8.73;1.55;;;9.40;85.60;;;;;;4957287;28;98606;-68
2021/11/30 07:25:53;;;;;;;14.88;2.42;;;9.40;85.30;;;;;;4974963;28;99201;-69
2021/11/30 07:28:28;;;;;;;14.48;2.45;;;9.50;85.30;;;;;;4974821;28;98915;-69
2021/11/30 07:31:04;;;;;;;15.80;2.67;;;9.50;85.30;;;;;;4974060;28;98591;-69
2021/11/30 07:33:33;;;;;;;9.38;2.03;;;9.60;85.20;;;;;;4974091;28;97779;-69
2021/11/30 07:36:01;;;;;;;20.02;3.28;;;9.50;85.20;;;;;;4974903;28;99132;-72
2021/11/30 07:38:28;;;;;;;12.27;2.03;;;9.60;85.20;;;;;;4974771;28;99897;-72
2021/11/30 07:40:55;;;;;;;11.45;2.45;;;9.60;84.70;;;;;;4957638;28;99284;-72
2021/11/30 07:43:22;;;;;;;13.25;2.63;;;9.60;84.70;;;;;;4975141;28;98539;-72
2021/11/30 07:45:49;;;;;;;12.75;2.35;;;9.60;84.80;;;;;;4957387;28;99385;-72
2021/11/30 07:48:17;;;;;;;14.25;2.38;;;9.60;84.70;;;;;;4973419;28;99323;-73
2021/11/30 07:50:45;;;;;;;14.25;2.38;;;9.60;84.90;;;;;;4975265;28;98491;-72
2021/11/30 07:53:12;;;;;;;10.52;2.85;;;9.60;84.50;;;;;;4973907;28;98531;-72
2021/11/30 07:55:40;;;;;;;10.32;2.15;;;9.60;84.60;;;;;;4974195;28;99194;-72
2021/11/30 07:58:07;;;;;;;11.25;2.53;;;9.60;84.00;;;;;;4973696;28;98816;-72
2021/11/30 08:00:34;;;;;;;9.45;1.85;;;9.60;84.20;;;;;;4974927;28;98560;-72
2021/11/30 08:03:02;;;;;;;10.77;2.30;;;9.50;84.80;;;;;;4974449;28;98517;-72
2021/11/30 08:05:30;;;;;;;15.25;2.30;;;9.50;85.50;;;;;;4973937;28;99855;-72
2021/11/30 08:07:57;;;;;;;10.30;1.63;;;9.50;85.90;;;;;;4974363;28;99537;-72
2021/11/30 08:10:27;;;;;;;10.75;1.75;;;9.50;85.90;;;;;;4974772;28;98584;-73
2021/11/30 08:12:55;;;;;;;21.33;2.65;;;9.50;86.00;;;;;;4975150;28;98896;-72
2021/11/30 08:15:22;;;;;;;14.63;1.90;;;9.50;86.60;;;;;;4974074;28;103683;-72
2021/11/30 08:18:05;;;;;;;11.25;1.55;;;9.50;86.60;;;;;;4974588;28;98881;-73
2021/11/30 08:20:33;;;;;;;9.35;1.92;;;9.50;86.70;;;;;;4974477;28;98968;-72
2021/11/30 08:23:00;;;;;;;12.02;2.17;;;9.50;86.30;;;;;;4973652;28;97810;-72
2021/11/30 08:25:27;;;;;;;13.50;2.58;;;9.50;86.20;;;;;;4974123;28;99055;-72
2021/11/30 08:27:56;;;;;;;10.52;2.33;;;9.50;86.70;;;;;;4974303;28;98885;-72
2021/11/30 08:30:41;;;;;;;10.23;2.33;;;9.60;86.80;;;;;;4972309;28;99305;-73
2021/11/30 08:33:08;;;;;;;6.35;1.50;;;9.60;86.60;;;;;;4974604;28;98496;-74
2021/11/30 08:35:35;;;;;;;4.53;1.25;;;9.60;86.00;;;;;;4972487;28;100226;-73
2021/11/30 08:38:04;;;;;;;7.05;1.08;;;9.60;85.80;;;;;;4974156;28;98726;-73
2021/11/30 08:40:31;;;;;;;9.70;1.95;;;9.60;85.70;;;;;;4972833;28;98571;-72
2021/11/30 08:42:58;;;;;;;11.68;1.60;;;9.70;85.70;;;;;;4974334;28;98553;-73
2021/11/30 08:45:26;;;;;;;7.80;1.35;;;9.70;85.40;;;;;;4973609;28;99145;-72
2021/11/30 08:47:53;;;;;;;6.75;1.70;;;9.80;85.20;;;;;;4956265;28;100109;-72
2021/11/30 08:50:20;;;;;;;9.85;1.55;;;9.80;85.30;;;;;;4974170;28;98535;-72
2021/11/30 08:52:48;;;;;;;13.20;1.50;;;9.90;84.80;;;;;;4974212;28;98533;-72
2021/11/30 08:55:16;;;;;;;7.05;1.60;;;9.90;84.80;;;;;;4973412;28;99886;-72
2021/11/30 08:57:44;;;;;;;20.27;2.33;;;10.00;84.80;;;;;;4973610;28;99557;-72
2021/11/30 09:00:15;;;;;;;9.20;1.30;;;10.00;84.70;;;;;;4972524;28;98595;-72
2021/11/30 09:02:42;;;;;;;12.65;1.67;;;10.10;85.00;;;;;;4971696;28;98673;-69
2021/11/30 09:05:10;;;;;;;12.13;1.90;;;10.00;85.40;;;;;;4972532;28;99250;-69
2021/11/30 09:07:37;;;;;;;14.43;1.88;;;10.00;87.70;;;;;;4953678;28;98792;-72
2021/11/30 09:10:06;;;;;;;12.95;2.50;;;9.90;87.70;;;;;;4952809;28;98562;-72
2021/11/30 09:12:34;;;;;;;13.27;2.60;;;9.90;87.70;;;;;;4954379;28;97768;-72
2021/11/30 09:15:01;;;;;;;11.75;1.90;;;9.80;87.20;;;;;;4953276;28;114088;-72
2021/11/30 09:17:46;;;;;;;14.20;2.28;;;9.80;88.00;;;;;;4953741;28;98964;-72
2021/11/30 09:20:13;;;;;;;10.23;2.03;;;9.80;87.80;;;;;;4953428;28;100215;-72
2021/11/30 09:22:40;;;;;;;9.05;1.63;;;9.80;87.20;;;;;;4954076;28;98550;-72
2021/11/30 09:25:08;;;;;;;11.57;1.92;;;9.80;87.00;;;;;;4953989;28;99162;-72
2021/11/30 09:27:36;;;;;;;6.80;1.45;;;9.80;87.00;;;;;;4953403;28;98869;-72
2021/11/30 09:30:05;;;;;;;8.43;1.25;;;9.80;87.10;;;;;;4954295;28;99230;-72
2021/11/30 09:32:33;;;;;;;12.77;1.95;;;9.80;86.70;;;;;;4952256;28;98614;-72
2021/11/30 09:35:09;;;;;;;8.13;1.42;;;9.80;86.10;;;;;;4953769;28;99311;-72
2021/11/30 09:37:38;;;;;;;7.45;1.42;;;9.80;86.10;;;;;;4953934;28;98817;-72
2021/11/30 09:40:08;;;;;;;7.72;1.25;;;9.80;85.80;;;;;;4953745;28;98519;-72
2021/11/30 09:42:35;;;;;;;4.55;1.17;;;9.90;86.10;;;;;;4953170;28;98431;-69
2021/11/30 09:45:10;;;;;;;4.85;1.20;;;9.80;88.00;;;;;;4953087;28;99795;-69
2021/11/30 09:47:38;;;;;;;6.03;1.13;;;9.90;87.60;;;;;;4953317;28;99600;-69
2021/11/30 09:50:09;;;;;;;5.80;1.23;;;9.80;87.70;;;;;;4953930;28;98949;-73
2021/11/30 09:52:37;;;;;;;8.52;1.15;;;9.90;87.50;;;;;;4935718;28;98541;-72
2021/11/30 09:55:06;;;;;;;6.97;1.05;;;9.80;87.30;;;;;;4951862;28;100419;-72
2021/11/30 09:57:33;;;;;;;2.20;0.80;;;9.90;87.70;;;;;;4952914;28;107533;-72
2021/11/30 10:00:03;;;;;;;6.47;1.00;;;10.00;87.40;;;;;;4953758;28;98427;-72
2021/11/30 10:02:51;;;;;;;5.78;1.00;;;10.10;86.40;;;;;;4935348;28;97870;-72
2021/11/30 10:05:19;;;;;;;6.22;1.00;;;10.10;85.60;;;;;;4953065;28;99132;-72
2021/11/30 10:07:51;;;;;;;5.65;1.00;;;10.20;85.70;;;;;;4952959;28;99088;-72
2021/11/30 10:10:24;;;;;;;4.63;0.82;;;10.30;84.60;;;;;;4953459;28;99216;-72
2021/11/30 10:13:11;;;;;;;7.57;1.33;;;10.30;83.20;;;;;;4953390;28;98634;-72
2021/11/30 10:15:47;;;;;;;8.50;1.42;;;10.40;84.00;;;;;;4953130;28;99730;-73
2021/11/30 10:18:18;;;;;;;6.07;1.42;;;10.40;83.80;;;;;;4953133;28;98778;-72
2021/11/30 10:20:49;;;;;;;7.75;2.38;;;10.40;83.60;;;;;;4953349;28;98534;-72
2021/11/30 10:23:17;;;;;;;5.05;1.40;;;10.40;83.60;;;;;;4952288;28;98466;-72
2021/11/30 10:25:48;;;;;;;5.95;1.40;;;10.40;83.30;;;;;;4952372;28;99180;-72
2021/11/30 10:28:24;;;;;;;8.88;1.90;;;10.50;83.10;;;;;;4953385;28;98876;-72
2021/11/30 10:30:52;;;;;;;8.30;1.70;;;10.50;83.00;;;;;;4953186;28;98546;-72
2021/11/30 10:33:22;;;;;;;7.75;1.45;;;10.50;83.70;;;;;;4953320;28;98546;-72
2021/11/30 10:35:56;;;;;;;8.43;1.23;;;10.50;82.80;;;;;;4952139;28;100812;-72
2021/11/30 10:38:41;;;;;;;6.95;2.72;;;10.50;82.90;;;;;;4952764;28;99565;-73
2021/11/30 10:41:20;;;;;;;6.57;1.33;;;10.40;82.50;;;;;;4953248;28;98546;-72
2021/11/30 10:43:58;;;;;;;6.88;1.48;;;10.30;82.80;;;;;;4952948;28;98494;-72
2021/11/30 10:46:29;;;;;;;8.13;1.83;;;10.30;83.10;;;;;;4952848;28;99142;-72
2021/11/30 10:48:57;;;;;;;11.00;1.73;;;10.30;83.10;;;;;;4952432;28;98906;-72
2021/11/30 10:51:27;;;;;;;9.23;1.75;;;10.30;83.00;;;;;;4953195;28;98907;-72
2021/11/30 10:53:59;;;;;;;9.63;1.90;;;10.40;82.50;;;;;;4954670;28;97811;-72
2021/11/30 10:56:27;;;;;;;12.88;3.63;;;10.50;82.40;;;;;;4955917;28;100211;-72
2021/11/30 10:58:55;;;;;;;10.07;2.10;;;10.50;81.20;;;;;;4955691;28;98874;-72
2021/11/30 11:01:25;;;;;;;10.13;2.00;;;10.50;81.40;;;;;;4955904;28;99247;-72
2021/11/30 11:04:07;;;;;;;12.35;2.10;;;10.60;80.70;;;;;;4955710;28;98870;-72
2021/11/30 11:06:36;;;;;;;10.73;2.03;;;10.70;80.80;;;;;;4955879;28;103174;-72
2021/11/30 11:09:09;;;;;;;8.68;1.70;;;10.70;80.30;;;;;;4955405;28;98869;-72
2021/11/30 11:11:44;;;;;;;12.43;2.35;;;10.80;79.80;;;;;;4955856;28;98957;-69
2021/11/30 11:14:24;;;;;;;8.75;2.42;;;10.80;79.10;;;;;;4956419;28;99148;-69
2021/11/30 11:17:02;;;;;;;11.90;1.98;;;10.80;78.60;;;;;;4955614;28;99262;-69
2021/11/30 11:19:43;;;;;;;12.07;2.60;;;10.80;78.80;;;;;;4956118;28;98953;-69
2021/11/30 11:22:20;;;;;;;15.48;2.17;;;10.80;78.70;;;;;;4956110;28;98414;-69
2021/11/30 11:24:50;;;;;;;14.38;2.67;;;10.80;79.10;;;;;;4937906;28;98763;-69
2021/11/30 11:27:27;;;;;;;8.82;1.98;;;10.70;78.60;;;;;;4955140;28;99872;-69
2021/11/30 11:29:54;;;;;;;13.25;2.28;;;10.60;78.30;;;;;;4955489;28;99601;-69
2021/11/30 11:32:23;;;;;;;7.00;2.35;;;10.60;78.50;;;;;;4955941;28;98950;-69
2021/11/30 11:34:50;;;;;;;11.18;2.35;;;10.40;77.60;;;;;;4954299;28;98743;-69
2021/11/30 11:37:17;;;;;;;18.02;2.67;;;10.40;77.00;;;;;;4954072;28;99293;-69
2021/11/30 11:39:44;;;;;;;15.35;3.00;;;10.30;77.50;;;;;;4955176;28;98923;-69
2021/11/30 11:42:12;;;;;;;16.75;2.70;;;10.20;77.30;;;;;;4955809;28;98523;-69
2021/11/30 11:44:40;;;;;;;10.77;2.40;;;10.20;75.90;;;;;;4955558;28;100590;-69
2021/11/30 11:47:09;;;;;;;18.30;3.05;;;10.10;76.30;;;;;;4953472;28;99075;-68
2021/11/30 11:49:40;;;;;;;15.05;3.45;;;10.20;77.10;;;;;;4955143;28;98801;-68
2021/11/30 11:52:27;;;;;;;12.60;2.33;;;10.20;76.00;;;;;;4955147;28;99358;-69
2021/11/30 11:55:10;;;;;;;17.45;3.17;;;10.20;76.40;;;;;;4955361;28;98522;-69
2021/11/30 11:57:38;;;;;;;14.50;2.67;;;10.30;76.90;;;;;;4955010;28;99173;-69
2021/11/30 12:00:27;;;;;;;19.58;3.40;;;10.30;76.60;;;;;;4954652;28;99499;-68
2021/11/30 12:03:02;;;;;;;17.23;3.75;;;10.60;76.50;;;;;;4936893;28;98607;-68
2021/11/30 12:05:42;;;;;;;15.82;2.58;;;10.70;75.90;;;;;;4954887;28;98615;-69
2021/11/30 12:08:19;;;;;;;11.30;2.42;;;10.80;73.80;;;;;;4936913;28;100232;-69
2021/11/30 12:10:46;;;;;;;14.63;2.78;;;10.80;73.70;;;;;;4955174;28;99887;-68
2021/11/30 12:13:17;;;;;;;16.65;3.35;;;10.70;74.60;;;;;;4955235;28;98522;-74
2021/11/30 12:16:11;;;;;;;18.60;3.67;;;10.70;74.20;;;;;;4955328;28;98418;-74
2021/11/30 12:18:50;;;;;;;15.68;3.45;;;10.70;74.10;;;;;;4952840;28;101139;-74
2021/11/30 12:21:20;;;;;;;8.93;2.17;;;10.70;74.20;;;;;;4953501;28;100924;-74
2021/11/30 12:23:52;;;;;;;16.98;3.08;;;10.70;74.00;;;;;;4955079;28;98500;-74
2021/11/30 12:26:33;;;;;;;13.85;2.58;;;10.60;73.20;;;;;;4955290;28;98474;-73
2021/11/30 12:29:18;;;;;;;15.88;2.53;;;10.60;73.90;;;;;;4954396;28;99111;-73
2021/11/30 12:31:45;;;;;;;;;;;10.50;73.50;;;;;;4954999;28;100230;-73
2021/11/30 12:34:38;;;;;;;15.07;3.08;;;10.40;73.90;;;;;;4955601;28;99369;-72
2021/11/30 12:37:16;;;;;;;12.32;2.58;;;10.50;74.70;;;;;;4937151;28;98332;-73
2021/11/30 12:40:06;;;;;;;16.17;3.55;;;10.50;74.40;;;;;;4952994;28;100268;-67
2021/11/30 12:42:44;;;;;;;13.05;2.58;;;10.50;74.60;;;;;;4936665;28;100382;-72
2021/11/30 12:45:20;;;;;;;16.60;2.70;;;10.50;74.00;;;;;;4954426;28;99266;-69
2021/11/30 12:47:47;;;;;;;15.60;2.38;;;10.60;75.00;;;;;;4952896;28;98623;-69
2021/11/30 12:50:27;;;;;;;12.35;2.78;;;10.60;74.30;;;;;;4952315;28;117374;-69
2021/11/30 12:53:03;;;;;;;15.43;3.22;;;10.70;73.60;;;;;;4936283;28;100196;-69
2021/11/30 12:55:44;;;;;;;15.63;2.20;;;10.80;73.80;;;;;;4954793;28;98425;-69
2021/11/30 12:58:49;;;;;;;7.85;2.15;;;10.80;73.40;;;;;;4954160;28;98531;-68
2021/11/30 13:01:18;;;;;;;13.82;2.25;;;10.80;73.00;;;;;;4953973;28;99153;-69
2021/11/30 13:03:46;;;;;;;16.25;2.30;;;10.70;73.40;;;;;;4952765;28;104236;-68
2021/11/30 13:06:14;;;;;;;9.48;2.10;;;10.80;73.40;;;;;;4954185;28;98577;-69
2021/11/30 13:09:10;;;;;;;11.75;2.45;;;10.80;73.40;;;;;;4953116;28;98616;-69
2021/11/30 13:11:37;;;;;;;14.13;2.80;;;10.90;73.10;;;;;;4919932;28;100865;-68
2021/11/30 13:14:06;;;;;;;9.52;2.65;;;10.90;73.60;;;;;;4953575;28;100712;-69
2021/11/30 13:16:45;;;;;;;12.45;2.45;;;10.80;74.00;;;;;;4953577;28;98572;-69
2021/11/30 13:19:12;;;;;;;12.23;2.90;;;10.80;74.10;;;;;;4952206;28;98584;-76